Time;durP1;ratioP1;P1;durP2;ratioP2;P2;SDS_P1;SDS_P2;PMS_P1;PMS_P2;Temp;Humidity;BMP_temperature;BMP_pressure;BME280_temperature;BME280_humidity;BME280_pressure;Samples;Min_cycle;Max_cycle;Signal;HPM_P1;HPM_P2
2022/10/30 00:00:50;;;;;;;17.77;11.13;;;14.50;99.90;;;;;;5094902;28;20238;-57
2022/10/30 00:03:19;;;;;;;19.53;12.30;;;14.50;99.90;;;;;;5095410;28;20631;-57
2022/10/30 00:05:49;;;;;;;15.90;11.33;;;14.50;99.90;;;;;;5077121;28;20589;-57
2022/10/30 00:08:19;;;;;;;17.93;10.90;;;14.40;99.90;;;;;;5095615;28;20230;-57
2022/10/30 00:10:49;;;;;;;16.30;11.43;;;14.40;99.90;;;;;;5094864;28;20234;-57
2022/10/30 00:13:17;;;;;;;18.70;11.53;;;14.40;99.90;;;;;;5095364;28;20582;-57
2022/10/30 00:15:53;;;;;;;15.73;10.53;;;14.40;99.90;;;;;;5098584;28;20282;-57
2022/10/30 00:18:24;;;;;;;20.77;12.30;;;14.50;99.90;;;;;;5107154;28;20232;-55
2022/10/30 00:20:52;;;;;;;19.20;11.57;;;14.40;99.90;;;;;;5115455;28;20233;-57
2022/10/30 00:23:20;;;;;;;17.83;11.67;;;14.50;99.90;;;;;;5100828;28;20316;-57
2022/10/30 00:25:48;;;;;;;15.97;10.83;;;14.50;99.90;;;;;;5094881;28;20228;-57
2022/10/30 00:28:16;;;;;;;23.47;12.73;;;14.40;99.90;;;;;;5095227;28;20720;-57
2022/10/30 00:30:45;;;;;;;15.07;11.40;;;14.50;99.90;;;;;;5094316;28;20241;-57
2022/10/30 00:33:16;;;;;;;21.97;12.53;;;14.40;99.90;;;;;;5095177;28;20218;-57
2022/10/30 00:35:49;;;;;;;18.43;11.60;;;14.40;99.90;;;;;;5094695;28;20230;-55
2022/10/30 00:38:17;;;;;;;22.13;11.33;;;14.40;99.90;;;;;;5094632;28;20262;-57
2022/10/30 00:40:45;;;;;;;23.03;11.60;;;14.40;99.90;;;;;;5094585;28;20356;-57
2022/10/30 00:43:31;;;;;;;16.97;12.07;;;14.40;99.90;;;;;;5094759;28;20236;-57
2022/10/30 00:46:06;;;;;;;16.13;11.20;;;14.40;99.90;;;;;;5098271;28;20240;-57
2022/10/30 00:48:37;;;;;;;18.53;12.10;;;14.40;99.90;;;;;;5106200;28;20243;-57
2022/10/30 00:51:10;;;;;;;18.27;11.63;;;14.40;99.90;;;;;;5113669;28;20241;-57
2022/10/30 00:53:41;;;;;;;15.33;11.90;;;14.40;99.90;;;;;;5095728;28;20606;-57
2022/10/30 00:56:11;;;;;;;15.00;10.67;;;14.40;99.90;;;;;;5074176;28;20284;-57
2022/10/30 00:58:44;;;;;;;15.83;11.20;;;14.40;99.90;;;;;;5074007;28;20608;-57
2022/10/30 01:01:18;;;;;;;20.43;11.43;;;14.40;99.90;;;;;;5073759;28;20659;-57
2022/10/30 01:03:50;;;;;;;17.60;10.50;;;14.40;99.90;;;;;;5081446;28;20240;-56
2022/10/30 01:06:19;;;;;;;17.47;10.80;;;14.40;99.90;;;;;;5076072;28;20262;-57
2022/10/30 01:08:48;;;;;;;21.07;11.33;;;14.40;99.90;;;;;;5075838;28;20234;-57
2022/10/30 01:11:19;;;;;;;15.57;11.20;;;14.40;99.90;;;;;;5075955;28;20229;-57
2022/10/30 01:13:50;;;;;;;16.43;10.53;;;14.40;99.90;;;;;;5093956;28;20223;-57
2022/10/30 01:16:38;;;;;;;14.60;9.97;;;14.40;99.90;;;;;;5102276;28;20269;-57
2022/10/30 01:19:21;;;;;;;16.77;11.67;;;14.40;99.90;;;;;;5104636;28;20240;-56
2022/10/30 01:22:06;;;;;;;15.53;10.67;;;14.40;99.90;;;;;;5093938;28;20261;-57
2022/10/30 01:24:48;;;;;;;17.50;10.17;;;14.40;99.90;;;;;;5092720;28;20226;-56
2022/10/30 01:27:38;;;;;;;13.10;10.77;;;14.40;99.90;;;;;;5092507;28;20664;-57
2022/10/30 01:30:20;;;;;;;16.70;11.13;;;14.30;99.90;;;;;;5075835;28;20230;-57
2022/10/30 01:33:00;;;;;;;17.03;11.50;;;14.30;99.90;;;;;;5075240;28;20248;-58
2022/10/30 01:35:37;;;;;;;17.67;11.00;;;14.30;99.90;;;;;;5092391;28;20591;-57
2022/10/30 01:38:12;;;;;;;17.33;10.97;;;14.30;99.90;;;;;;5093673;28;20747;-57
2022/10/30 01:40:40;;;;;;;16.97;10.73;;;14.40;99.90;;;;;;5093422;28;20244;-57
2022/10/30 01:43:09;;;;;;;18.63;10.70;;;14.40;99.90;;;;;;5093496;28;20590;-57
2022/10/30 01:45:54;;;;;;;18.23;10.63;;;14.40;99.90;;;;;;5095851;28;20773;-57
2022/10/30 01:48:47;;;;;;;17.57;10.60;;;14.30;99.90;;;;;;5092217;28;20230;-57
2022/10/30 01:51:25;;;;;;;16.20;11.23;;;14.40;99.90;;;;;;5087174;28;20324;-57
2022/10/30 01:54:00;;;;;;;17.07;10.63;;;14.40;99.90;;;;;;5094543;28;20218;-57
2022/10/30 01:56:37;;;;;;;17.13;9.83;;;14.30;99.90;;;;;;5074875;28;20229;-55
2022/10/30 01:59:13;;;;;;;12.83;9.90;;;14.20;99.90;;;;;;5075134;28;20225;-57
2022/10/30 02:01:41;;;;;;;17.00;11.30;;;14.20;99.90;;;;;;5092500;28;20239;-56
2022/10/30 02:04:12;;;;;;;15.27;10.20;;;14.20;99.90;;;;;;5086837;28;20224;-57
2022/10/30 02:06:42;;;;;;;16.03;10.57;;;14.40;99.90;;;;;;5112333;28;20312;-57
2022/10/30 02:09:10;;;;;;;14.43;9.77;;;14.30;99.90;;;;;;5095317;28;20233;-58
2022/10/30 02:11:47;;;;;;;14.33;9.50;;;14.30;99.90;;;;;;5112049;28;20762;-57
2022/10/30 02:14:19;;;;;;;13.77;10.07;;;14.30;99.90;;;;;;5112275;28;20703;-57
2022/10/30 02:16:50;;;;;;;18.53;11.30;;;14.40;99.90;;;;;;5094384;28;20228;-57
2022/10/30 02:19:20;;;;;;;15.60;11.43;;;14.20;99.90;;;;;;5088320;28;20228;-57
2022/10/30 02:21:50;;;;;;;15.17;10.47;;;14.20;99.90;;;;;;5111802;28;20307;-57
2022/10/30 02:24:18;;;;;;;16.13;10.27;;;14.10;99.90;;;;;;5074836;28;20312;-57
2022/10/30 02:26:46;;;;;;;17.93;11.97;;;14.10;99.90;;;;;;5091344;28;20246;-57
2022/10/30 02:29:14;;;;;;;18.53;11.10;;;14.10;99.90;;;;;;5092886;28;20229;-57
2022/10/30 02:31:42;;;;;;;17.53;11.30;;;14.00;99.90;;;;;;5092225;28;20351;-57
2022/10/30 02:34:11;;;;;;;18.13;11.07;;;14.00;99.90;;;;;;5091316;28;20702;-57
2022/10/30 02:36:39;;;;;;;18.73;10.57;;;14.00;99.90;;;;;;5091245;28;20318;-57
2022/10/30 02:39:08;;;;;;;16.20;10.70;;;14.00;99.90;;;;;;5092821;28;20689;-57
2022/10/30 02:41:36;;;;;;;21.57;11.37;;;14.00;99.90;;;;;;5092813;28;20313;-57
2022/10/30 02:44:05;;;;;;;14.40;10.83;;;14.00;99.90;;;;;;5092660;28;20585;-57
2022/10/30 02:46:35;;;;;;;20.57;12.63;;;14.00;99.90;;;;;;5087835;28;20272;-57
2022/10/30 02:49:03;;;;;;;16.60;11.23;;;14.00;99.90;;;;;;5082006;28;20221;-57
2022/10/30 02:51:32;;;;;;;15.87;11.20;;;14.00;99.90;;;;;;5092658;28;20593;-57
2022/10/30 02:54:00;;;;;;;14.17;10.63;;;14.00;99.90;;;;;;5093457;28;20226;-57
2022/10/30 02:56:31;;;;;;;20.00;11.30;;;14.10;99.90;;;;;;5091154;28;20741;-57
2022/10/30 02:59:01;;;;;;;19.63;11.43;;;14.10;99.90;;;;;;5074630;28;20230;-57
2022/10/30 03:01:30;;;;;;;14.80;11.67;;;14.10;99.90;;;;;;5075913;28;20287;-57
2022/10/30 03:03:59;;;;;;;21.50;10.70;;;14.10;99.90;;;;;;5092959;28;20261;-57
2022/10/30 03:06:28;;;;;;;16.57;11.10;;;14.10;99.90;;;;;;5074939;28;20226;-56
2022/10/30 03:08:58;;;;;;;20.80;11.37;;;14.00;99.90;;;;;;5072240;28;20624;-57
2022/10/30 03:11:26;;;;;;;15.60;11.20;;;14.10;99.90;;;;;;5072138;28;20225;-55
2022/10/30 03:13:56;;;;;;;16.17;11.27;;;14.00;99.90;;;;;;5054304;28;20642;-57
2022/10/30 03:16:28;;;;;;;14.07;10.93;;;14.10;99.90;;;;;;5089809;28;20243;-57
2022/10/30 03:18:57;;;;;;;13.97;10.50;;;14.10;99.90;;;;;;5102889;28;20226;-57
2022/10/30 03:21:27;;;;;;;18.17;11.17;;;14.10;99.90;;;;;;5112995;28;20683;-57
2022/10/30 03:23:55;;;;;;;16.57;10.97;;;14.10;99.90;;;;;;5093206;28;20790;-57
2022/10/30 03:26:24;;;;;;;17.80;11.33;;;14.10;99.90;;;;;;5092306;28;20766;-56
2022/10/30 03:28:58;;;;;;;15.37;9.97;;;14.10;99.90;;;;;;5074220;28;20230;-57
2022/10/30 03:31:26;;;;;;;19.43;10.93;;;14.10;99.90;;;;;;5090490;28;20280;-57
2022/10/30 03:34:14;;;;;;;17.30;9.70;;;14.10;99.90;;;;;;5090964;28;20230;-57
2022/10/30 03:36:42;;;;;;;15.70;10.73;;;14.10;99.90;;;;;;5092038;28;20740;-57
2022/10/30 03:39:11;;;;;;;17.50;9.87;;;14.30;99.90;;;;;;5090927;28;20291;-56
2022/10/30 03:41:43;;;;;;;20.33;11.50;;;14.30;99.90;;;;;;5090608;28;20276;-57
2022/10/30 03:44:13;;;;;;;15.27;10.43;;;14.20;99.90;;;;;;5073979;28;20234;-57
2022/10/30 03:46:41;;;;;;;14.77;9.27;;;14.10;99.90;;;;;;5104522;28;20673;-57
2022/10/30 03:49:39;;;;;;;14.93;10.90;;;14.10;99.90;;;;;;5078445;28;20257;-57
2022/10/30 03:52:11;;;;;;;16.40;10.70;;;14.00;99.90;;;;;;5078319;28;20312;-57
2022/10/30 03:54:39;;;;;;;16.23;10.33;;;14.10;99.90;;;;;;5095332;28;20228;-58
2022/10/30 03:57:09;;;;;;;17.67;11.53;;;14.10;99.90;;;;;;5094456;28;20218;-57
2022/10/30 03:59:46;;;;;;;22.07;10.93;;;14.00;99.90;;;;;;5077518;28;20226;-57
2022/10/30 04:02:34;;;;;;;15.37;10.27;;;14.10;99.90;;;;;;5077677;28;20238;-57
2022/10/30 04:05:03;;;;;;;19.37;11.20;;;14.00;99.90;;;;;;5095452;28;20265;-57
2022/10/30 04:07:31;;;;;;;15.53;10.50;;;14.00;99.90;;;;;;5076991;28;20230;-56
2022/10/30 04:10:00;;;;;;;16.47;11.07;;;14.00;99.90;;;;;;5094094;28;20230;-57
2022/10/30 04:12:29;;;;;;;15.70;11.03;;;14.00;99.90;;;;;;5076981;28;20367;-57
2022/10/30 04:14:59;;;;;;;19.20;11.40;;;14.00;99.90;;;;;;5095596;28;20217;-57
2022/10/30 04:17:27;;;;;;;16.10;11.00;;;14.00;99.90;;;;;;5082786;28;20252;-56
2022/10/30 04:19:56;;;;;;;15.43;10.40;;;14.00;99.90;;;;;;5095657;28;20396;-57
2022/10/30 04:22:24;;;;;;;17.53;10.20;;;14.00;99.90;;;;;;5077871;28;20233;-56
2022/10/30 04:24:53;;;;;;;18.00;11.23;;;14.10;99.90;;;;;;5094833;28;20271;-58
2022/10/30 04:27:21;;;;;;;18.00;10.30;;;14.00;99.90;;;;;;5093791;28;20233;-57
2022/10/30 04:29:49;;;;;;;15.17;9.30;;;14.00;99.90;;;;;;5076670;28;20236;-57
2022/10/30 04:32:21;;;;;;;14.37;9.80;;;14.10;99.90;;;;;;5076317;28;20238;-57
2022/10/30 04:34:52;;;;;;;14.03;10.17;;;14.10;99.90;;;;;;5077157;28;20241;-57
2022/10/30 04:37:20;;;;;;;15.43;10.30;;;14.10;99.90;;;;;;5076573;28;20333;-57
2022/10/30 04:39:51;;;;;;;17.87;10.43;;;14.00;99.90;;;;;;5093811;28;20283;-57
2022/10/30 04:42:24;;;;;;;13.97;10.43;;;14.00;99.90;;;;;;5093402;28;20232;-56
2022/10/30 04:44:53;;;;;;;15.77;10.47;;;14.10;99.90;;;;;;5076549;28;20772;-57
2022/10/30 04:47:23;;;;;;;12.37;9.43;;;14.20;99.90;;;;;;5095179;28;20233;-57
2022/10/30 04:49:51;;;;;;;13.63;8.60;;;14.20;99.90;;;;;;5093553;28;20234;-58
2022/10/30 04:52:19;;;;;;;11.70;8.97;;;14.20;99.90;;;;;;5077150;28;20270;-55
2022/10/30 04:54:47;;;;;;;13.03;8.80;;;14.30;99.90;;;;;;5076060;28;20225;-57
2022/10/30 04:57:16;;;;;;;14.63;9.70;;;14.30;99.90;;;;;;5070248;28;20579;-57
2022/10/30 04:59:44;;;;;;;14.63;8.77;;;14.10;99.90;;;;;;5074224;28;20254;-57
2022/10/30 05:02:12;;;;;;;10.67;8.63;;;14.10;99.90;;;;;;5055934;28;20245;-57
2022/10/30 05:04:42;;;;;;;15.50;10.67;;;14.10;99.90;;;;;;5055967;28;20571;-58
2022/10/30 05:07:10;;;;;;;12.83;8.60;;;14.00;99.90;;;;;;5074343;28;20234;-57
2022/10/30 05:09:38;;;;;;;14.27;9.33;;;14.10;99.90;;;;;;5072796;28;20237;-57
2022/10/30 05:12:07;;;;;;;13.43;8.53;;;14.10;99.90;;;;;;5055928;28;20224;-56
2022/10/30 05:14:43;;;;;;;14.50;10.40;;;14.00;99.90;;;;;;5073934;28;20227;-57
2022/10/30 05:17:11;;;;;;;13.13;10.43;;;13.90;99.90;;;;;;5082467;28;20227;-57
2022/10/30 05:19:41;;;;;;;14.87;9.47;;;13.80;99.90;;;;;;5088336;28;20294;-57
2022/10/30 05:22:09;;;;;;;14.03;9.80;;;13.70;99.90;;;;;;5091457;28;20229;-57
2022/10/30 05:24:37;;;;;;;12.77;8.97;;;13.70;99.90;;;;;;5093647;28;20229;-57
2022/10/30 05:27:05;;;;;;;15.23;9.50;;;13.70;99.90;;;;;;5075677;28;20271;-57
2022/10/30 05:29:35;;;;;;;13.70;9.60;;;13.70;99.90;;;;;;5075487;28;20720;-57
2022/10/30 05:32:04;;;;;;;9.70;8.10;;;13.70;99.90;;;;;;5093401;28;20321;-55
2022/10/30 05:34:38;;;;;;;13.53;8.40;;;13.80;99.90;;;;;;5092591;28;20222;-57
2022/10/30 05:37:08;;;;;;;13.43;8.90;;;13.70;99.90;;;;;;5075472;28;20271;-57
2022/10/30 05:39:36;;;;;;;10.13;8.27;;;13.70;99.90;;;;;;5075320;28;20230;-57
2022/10/30 05:42:10;;;;;;;14.07;9.03;;;13.80;99.90;;;;;;5075601;28;20225;-57
2022/10/30 05:44:43;;;;;;;11.70;7.73;;;13.70;99.90;;;;;;5075258;28;20237;-57
2022/10/30 05:47:29;;;;;;;12.43;8.43;;;13.70;99.90;;;;;;5089413;28;20222;-57
2022/10/30 05:49:58;;;;;;;14.17;9.03;;;13.70;99.90;;;;;;5075323;28;20842;-57
2022/10/30 05:52:28;;;;;;;12.27;8.53;;;13.60;99.90;;;;;;5075820;28;20698;-56
2022/10/30 05:54:58;;;;;;;15.73;8.67;;;13.50;99.90;;;;;;5075046;28;20272;-57
2022/10/30 05:57:56;;;;;;;12.27;8.97;;;13.40;99.90;;;;;;5091072;28;20227;-57
2022/10/30 06:00:25;;;;;;;13.60;8.83;;;13.30;99.90;;;;;;5092816;28;20232;-56
2022/10/30 06:02:58;;;;;;;16.63;9.47;;;13.30;99.90;;;;;;5093265;28;20221;-57
2022/10/30 06:05:30;;;;;;;13.17;9.00;;;13.30;99.90;;;;;;5074775;28;20225;-57
2022/10/30 06:08:00;;;;;;;14.37;9.73;;;13.20;99.90;;;;;;5093711;28;20653;-57
2022/10/30 06:10:28;;;;;;;13.20;8.67;;;13.20;99.90;;;;;;5092775;28;20225;-57
2022/10/30 06:13:13;;;;;;;17.50;10.00;;;13.20;99.90;;;;;;5074933;28;20228;-57
2022/10/30 06:15:47;;;;;;;12.27;10.10;;;13.20;99.90;;;;;;5077862;28;20225;-56
2022/10/30 06:18:15;;;;;;;12.17;8.67;;;13.10;99.90;;;;;;5086069;28;20235;-57
2022/10/30 06:20:45;;;;;;;14.57;10.20;;;13.10;99.90;;;;;;5095034;28;20256;-57
2022/10/30 06:23:33;;;;;;;16.50;9.73;;;13.10;99.90;;;;;;5096939;28;20355;-57
2022/10/30 06:26:05;;;;;;;13.53;8.97;;;13.10;99.90;;;;;;5074583;28;20718;-57
2022/10/30 06:28:35;;;;;;;12.53;9.67;;;13.10;99.90;;;;;;5082164;28;20320;-57
2022/10/30 06:31:04;;;;;;;12.87;10.10;;;13.10;99.90;;;;;;5083204;28;20219;-57
2022/10/30 06:33:36;;;;;;;15.60;10.43;;;13.10;99.90;;;;;;5074429;28;20253;-57
2022/10/30 06:36:05;;;;;;;16.50;10.30;;;13.10;99.90;;;;;;5074743;28;20337;-57
2022/10/30 06:38:34;;;;;;;13.43;9.53;;;13.10;99.90;;;;;;5074427;28;20241;-57
2022/10/30 06:41:02;;;;;;;14.77;10.37;;;13.10;99.90;;;;;;5074570;28;20230;-56
2022/10/30 06:44:00;;;;;;;18.23;10.40;;;13.10;99.90;;;;;;5074618;28;20276;-57
2022/10/30 06:46:31;;;;;;;12.87;10.67;;;13.10;99.90;;;;;;5075682;28;20241;-57
2022/10/30 06:49:01;;;;;;;14.30;10.33;;;13.10;99.90;;;;;;5083454;28;20661;-57
2022/10/30 06:51:31;;;;;;;15.43;10.57;;;13.20;99.90;;;;;;5091198;28;20227;-57
2022/10/30 06:54:01;;;;;;;19.10;11.87;;;13.10;99.90;;;;;;5089255;28;20268;-57
2022/10/30 06:56:38;;;;;;;15.97;10.83;;;13.10;99.90;;;;;;5072431;28;20229;-57
2022/10/30 06:59:15;;;;;;;13.27;10.40;;;13.20;99.90;;;;;;5071045;28;20233;-57
2022/10/30 07:01:52;;;;;;;15.13;10.70;;;13.20;99.90;;;;;;5070622;28;20238;-56
2022/10/30 07:04:26;;;;;;;16.50;10.47;;;13.30;99.90;;;;;;5072126;28;20245;-55
2022/10/30 07:06:58;;;;;;;12.60;9.93;;;13.30;99.90;;;;;;5071095;28;20242;-57
2022/10/30 07:09:29;;;;;;;13.37;10.63;;;13.40;99.90;;;;;;5054077;28;20230;-57
2022/10/30 07:11:57;;;;;;;13.47;10.47;;;13.40;99.90;;;;;;5071141;28;20229;-57
2022/10/30 07:14:56;;;;;;;15.50;10.87;;;13.40;99.90;;;;;;5054180;28;20227;-57
2022/10/30 07:17:42;;;;;;;16.97;10.93;;;13.40;99.90;;;;;;5101530;28;20724;-57
2022/10/30 07:20:20;;;;;;;11.43;9.67;;;13.50;99.90;;;;;;5070844;28;20222;-57
2022/10/30 07:22:49;;;;;;;14.30;10.80;;;13.50;99.90;;;;;;5073622;28;20349;-57
2022/10/30 07:25:18;;;;;;;12.03;10.27;;;13.60;99.90;;;;;;5074594;28;20238;-56
2022/10/30 07:27:55;;;;;;;14.77;9.83;;;13.70;99.90;;;;;;5076055;28;20627;-56
2022/10/30 07:30:58;;;;;;;14.20;9.90;;;13.80;99.90;;;;;;5020101;28;20749;-57
2022/10/30 07:33:45;;;;;;;13.43;10.77;;;13.80;99.90;;;;;;5075960;28;20237;-57
2022/10/30 07:36:20;;;;;;;16.00;10.87;;;13.80;99.90;;;;;;5074384;28;20744;-57
2022/10/30 07:38:53;;;;;;;15.70;10.83;;;13.80;99.90;;;;;;5075710;28;20218;-57
2022/10/30 07:41:33;;;;;;;16.90;10.50;;;13.80;99.90;;;;;;5074399;28;20233;-57
2022/10/30 07:44:20;;;;;;;14.00;10.83;;;13.80;99.90;;;;;;5075876;28;20238;-57
2022/10/30 07:46:56;;;;;;;17.80;10.80;;;13.80;99.90;;;;;;5085639;28;20231;-57
2022/10/30 07:49:47;;;;;;;17.90;11.00;;;13.80;99.90;;;;;;5071043;28;20710;-55
2022/10/30 07:52:20;;;;;;;21.23;11.20;;;13.80;99.90;;;;;;5097816;28;20260;-57
2022/10/30 07:54:49;;;;;;;16.73;10.97;;;13.90;99.90;;;;;;5097564;28;20229;-57
2022/10/30 07:57:40;;;;;;;22.87;11.20;;;13.90;99.90;;;;;;5084201;28;20233;-57
2022/10/30 08:00:29;;;;;;;21.10;11.23;;;13.90;99.90;;;;;;5115735;28;20275;-56
2022/10/30 08:03:17;;;;;;;18.13;11.37;;;14.10;99.90;;;;;;5114852;28;20237;-56
2022/10/30 08:05:54;;;;;;;16.33;10.70;;;14.30;99.90;;;;;;5114505;28;20229;-57
2022/10/30 08:08:28;;;;;;;18.00;10.37;;;14.40;99.90;;;;;;5097350;28;20639;-57
2022/10/30 08:11:08;;;;;;;18.13;10.53;;;14.50;99.90;;;;;;5114555;28;20600;-57
2022/10/30 08:13:40;;;;;;;17.67;11.87;;;14.50;99.90;;;;;;5114313;28;20625;-56
2022/10/30 08:16:08;;;;;;;14.23;10.57;;;14.60;99.90;;;;;;5093844;28;20217;-57
2022/10/30 08:18:40;;;;;;;20.57;11.83;;;14.70;99.90;;;;;;5102053;28;20232;-57
2022/10/30 08:21:08;;;;;;;22.50;11.50;;;14.80;99.90;;;;;;5093869;28;20306;-57
2022/10/30 08:23:41;;;;;;;16.93;10.90;;;14.90;99.90;;;;;;5093694;28;20618;-57
2022/10/30 08:26:14;;;;;;;16.60;10.13;;;15.00;99.90;;;;;;5076773;28;20702;-57
2022/10/30 08:28:43;;;;;;;14.67;10.07;;;15.20;99.90;;;;;;5093517;28;20716;-57
2022/10/30 08:31:12;;;;;;;16.60;10.53;;;15.40;99.90;;;;;;5093335;28;20238;-57
2022/10/30 08:34:04;;;;;;;16.33;11.23;;;15.60;99.90;;;;;;5094445;28;20227;-57
2022/10/30 08:36:48;;;;;;;17.97;11.37;;;15.80;99.90;;;;;;5076628;28;20242;-57
2022/10/30 08:39:17;;;;;;;17.20;11.27;;;16.00;99.90;;;;;;5076678;28;20230;-57
2022/10/30 08:42:13;;;;;;;16.57;10.80;;;16.10;99.90;;;;;;5076578;28;20642;-57
2022/10/30 08:44:45;;;;;;;16.47;10.33;;;16.20;99.90;;;;;;5076415;28;20654;-57
2022/10/30 08:47:31;;;;;;;14.90;9.93;;;16.30;99.90;;;;;;5104635;28;20242;-56
2022/10/30 08:49:59;;;;;;;14.40;10.50;;;16.50;99.90;;;;;;5109433;28;20314;-57
2022/10/30 08:52:30;;;;;;;18.03;10.43;;;16.70;99.90;;;;;;5095498;28;20245;-56
2022/10/30 08:54:59;;;;;;;16.20;11.27;;;16.90;99.90;;;;;;5095749;28;20223;-57
2022/10/30 08:57:27;;;;;;;18.57;10.90;;;17.10;99.90;;;;;;5076133;28;20233;-57
2022/10/30 08:59:58;;;;;;;15.00;10.37;;;17.10;99.90;;;;;;5076385;28;20237;-57
2022/10/30 09:03:02;;;;;;;14.60;10.13;;;17.20;99.90;;;;;;5032030;28;20240;-57
2022/10/30 09:05:43;;;;;;;17.63;10.23;;;17.40;99.90;;;;;;5087392;28;20752;-57
2022/10/30 09:08:17;;;;;;;15.40;10.73;;;17.50;99.90;;;;;;5094498;28;20264;-57
2022/10/30 09:11:00;;;;;;;17.67;9.83;;;17.60;99.90;;;;;;5076062;28;20223;-56
2022/10/30 09:13:28;;;;;;;17.00;10.63;;;17.70;99.90;;;;;;5093968;28;20230;-56
2022/10/30 09:16:01;;;;;;;17.47;10.63;;;17.80;99.90;;;;;;5079051;28;20258;-57
2022/10/30 09:18:32;;;;;;;16.83;9.73;;;17.90;99.90;;;;;;5094010;28;20221;-56
2022/10/30 09:21:00;;;;;;;18.77;10.30;;;18.00;99.90;;;;;;5113130;28;20244;-58
2022/10/30 09:23:36;;;;;;;17.60;10.13;;;18.10;99.90;;;;;;5112881;28;20217;-57
2022/10/30 09:26:24;;;;;;;16.33;9.67;;;18.30;99.90;;;;;;5082448;28;20238;-57
2022/10/30 09:29:04;;;;;;;15.63;9.43;;;18.40;99.90;;;;;;5096297;28;20229;-57
2022/10/30 09:31:52;;;;;;;19.87;10.63;;;18.60;99.90;;;;;;5113916;28;20233;-56
2022/10/30 09:34:20;;;;;;;15.60;9.97;;;18.60;99.90;;;;;;5095889;28;20226;-57
2022/10/30 09:37:01;;;;;;;23.00;10.33;;;18.70;99.90;;;;;;5113987;28;20287;-57
2022/10/30 09:39:31;;;;;;;18.43;10.13;;;18.80;99.90;;;;;;5095725;28;20256;-57
2022/10/30 09:42:19;;;;;;;15.53;11.43;;;19.00;99.90;;;;;;5095786;28;20249;-57
2022/10/30 09:45:07;;;;;;;14.67;9.90;;;19.10;99.90;;;;;;5094891;28;20706;-57
2022/10/30 09:48:07;;;;;;;19.00;10.23;;;19.30;99.90;;;;;;5095427;28;20708;-58
2022/10/30 09:50:54;;;;;;;18.17;10.50;;;19.40;99.90;;;;;;5090473;28;20222;-57
2022/10/30 09:53:30;;;;;;;19.53;10.27;;;19.60;99.90;;;;;;5095449;28;20225;-56
2022/10/30 09:56:06;;;;;;;17.73;10.37;;;19.60;99.90;;;;;;5112700;28;20241;-57
2022/10/30 09:58:47;;;;;;;14.10;9.97;;;19.80;99.90;;;;;;5112291;28;20588;-57
2022/10/30 10:01:22;;;;;;;16.50;10.10;;;19.90;99.90;;;;;;5094948;28;20326;-58
2022/10/30 10:04:11;;;;;;;18.80;10.43;;;19.90;99.90;;;;;;5095479;28;20286;-57
2022/10/30 10:06:54;;;;;;;15.30;10.17;;;20.00;99.90;;;;;;5113592;28;20224;-58
2022/10/30 10:09:39;;;;;;;18.27;9.63;;;20.10;99.90;;;;;;5112095;28;20253;-58
2022/10/30 10:12:24;;;;;;;14.93;10.00;;;20.30;99.90;;;;;;5095254;28;20366;-58
2022/10/30 10:14:54;;;;;;;16.23;10.50;;;20.50;99.90;;;;;;5113754;28;20643;-58
2022/10/30 10:17:31;;;;;;;16.93;10.23;;;20.70;99.90;;;;;;5108126;28;20619;-58
2022/10/30 10:20:02;;;;;;;14.97;9.93;;;20.80;99.90;;;;;;5110611;28;20702;-56
2022/10/30 10:22:36;;;;;;;16.07;9.67;;;21.00;99.90;;;;;;5113362;28;20619;-55
2022/10/30 10:25:09;;;;;;;14.93;9.33;;;21.00;99.90;;;;;;5113540;28;20231;-58
2022/10/30 10:28:01;;;;;;;16.43;10.20;;;21.00;99.90;;;;;;5113061;28;20231;-57
2022/10/30 10:30:38;;;;;;;15.73;10.13;;;21.20;99.90;;;;;;5112777;28;20235;-56
2022/10/30 10:33:30;;;;;;;12.23;9.13;;;21.30;99.90;;;;;;5113696;28;20236;-57
2022/10/30 10:36:10;;;;;;;14.73;9.57;;;21.40;99.90;;;;;;5113115;28;20710;-58
2022/10/30 10:38:56;;;;;;;20.43;10.27;;;21.40;99.90;;;;;;5113208;28;20665;-58
2022/10/30 10:41:35;;;;;;;16.20;10.27;;;21.40;99.90;;;;;;5113398;28;20232;-56
2022/10/30 10:44:16;;;;;;;14.90;9.33;;;21.40;99.90;;;;;;5113396;28;20229;-58
2022/10/30 10:47:05;;;;;;;13.87;8.73;;;21.50;99.90;;;;;;5112951;28;20704;-58
2022/10/30 10:49:50;;;;;;;12.77;8.43;;;21.70;99.90;;;;;;5085143;28;20229;-58
2022/10/30 10:52:22;;;;;;;18.30;9.20;;;21.70;99.90;;;;;;5092573;28;20239;-58
2022/10/30 10:54:55;;;;;;;16.30;8.83;;;21.80;99.90;;;;;;5089501;28;20237;-57
2022/10/30 10:57:36;;;;;;;15.20;9.07;;;21.90;99.90;;;;;;5096824;28;20225;-57
2022/10/30 11:00:07;;;;;;;17.33;9.43;;;21.90;99.90;;;;;;5096990;28;20313;-57
2022/10/30 11:02:41;;;;;;;15.03;9.37;;;21.90;99.90;;;;;;5096109;28;20238;-56
2022/10/30 11:05:18;;;;;;;14.07;8.70;;;21.90;99.90;;;;;;5096908;28;20226;-57
2022/10/30 11:07:49;;;;;;;18.73;10.03;;;22.10;99.90;;;;;;5096428;28;20236;-58
2022/10/30 11:10:20;;;;;;;13.83;9.53;;;22.20;99.90;;;;;;5096800;28;20696;-57
2022/10/30 11:12:48;;;;;;;17.97;10.10;;;22.00;99.90;;;;;;5096282;28;20241;-57
2022/10/30 11:15:29;;;;;;;16.93;10.20;;;21.90;99.90;;;;;;5096432;28;20291;-56
2022/10/30 11:18:01;;;;;;;17.80;10.17;;;21.90;99.90;;;;;;5101452;28;20232;-58
2022/10/30 11:20:36;;;;;;;15.17;9.37;;;21.90;99.90;;;;;;5096164;28;20223;-57
2022/10/30 11:23:37;;;;;;;13.67;10.00;;;21.80;99.90;;;;;;5096580;28;20330;-58
2022/10/30 11:26:29;;;;;;;16.77;10.07;;;21.90;99.90;;;;;;5096728;28;20581;-57
2022/10/30 11:28:59;;;;;;;16.50;10.43;;;21.90;99.90;;;;;;5096426;28;20589;-58
2022/10/30 11:31:33;;;;;;;17.57;9.60;;;21.80;99.90;;;;;;5095663;28;20230;-57
2022/10/30 11:34:28;;;;;;;16.40;9.50;;;21.70;99.90;;;;;;5096029;28;20234;-57
2022/10/30 11:36:56;;;;;;;19.93;9.70;;;21.70;99.90;;;;;;5095990;28;20261;-58
2022/10/30 11:39:27;;;;;;;18.70;9.90;;;21.50;99.90;;;;;;5096235;28;20704;-58
2022/10/30 11:41:59;;;;;;;20.57;10.07;;;21.50;99.90;;;;;;5096196;28;20230;-58
2022/10/30 11:44:32;;;;;;;12.47;8.77;;;21.50;99.90;;;;;;5096171;28;20237;-58
2022/10/30 11:47:01;;;;;;;16.13;9.97;;;21.40;99.90;;;;;;5105405;28;20320;-58
2022/10/30 11:49:38;;;;;;;14.37;9.90;;;21.50;99.90;;;;;;5108753;28;20622;-58
2022/10/30 11:52:08;;;;;;;19.27;9.63;;;21.50;99.90;;;;;;5116035;28;20235;-58
2022/10/30 11:54:43;;;;;;;16.07;9.87;;;21.50;99.90;;;;;;5116208;28;20700;-58
2022/10/30 11:57:21;;;;;;;15.60;9.00;;;21.60;99.90;;;;;;5116012;28;20236;-57
2022/10/30 11:59:51;;;;;;;15.07;10.30;;;21.60;99.90;;;;;;5116210;28;20217;-58
2022/10/30 12:02:22;;;;;;;17.43;9.93;;;21.60;99.90;;;;;;5115558;28;20261;-58
2022/10/30 12:04:51;;;;;;;16.47;9.57;;;21.70;99.90;;;;;;5115806;28;20229;-58
2022/10/30 12:07:26;;;;;;;15.73;9.60;;;21.70;99.90;;;;;;5114998;28;20320;-58
2022/10/30 12:09:56;;;;;;;15.70;9.83;;;21.70;99.90;;;;;;5116034;28;20233;-57
2022/10/30 12:12:30;;;;;;;16.03;8.93;;;21.60;99.90;;;;;;5116061;28;20624;-57
2022/10/30 12:15:10;;;;;;;13.70;8.93;;;21.70;99.90;;;;;;5115970;28;20588;-58
2022/10/30 12:17:39;;;;;;;15.63;9.40;;;21.70;99.90;;;;;;5107963;28;20221;-58
2022/10/30 12:20:13;;;;;;;16.43;9.07;;;21.70;99.90;;;;;;5113782;28;20692;-58
2022/10/30 12:22:41;;;;;;;15.17;8.90;;;21.60;99.90;;;;;;5115391;28;20226;-58
2022/10/30 12:25:22;;;;;;;17.20;9.07;;;21.60;99.90;;;;;;5115787;28;20687;-58
2022/10/30 12:27:57;;;;;;;16.00;9.30;;;21.60;99.90;;;;;;5115654;28;20228;-58
2022/10/30 12:30:27;;;;;;;15.23;8.80;;;21.60;99.90;;;;;;5115194;28;20717;-58
2022/10/30 12:33:00;;;;;;;16.57;9.20;;;21.60;99.90;;;;;;5115672;28;20226;-58
2022/10/30 12:35:38;;;;;;;13.93;8.30;;;21.60;99.90;;;;;;5115428;28;20300;-57
2022/10/30 12:38:13;;;;;;;14.07;7.77;;;21.60;99.90;;;;;;5115202;28;20259;-58
2022/10/30 12:40:50;;;;;;;17.30;8.40;;;21.60;99.90;;;;;;5114971;28;20235;-58
2022/10/30 12:43:24;;;;;;;16.07;7.90;;;21.60;99.90;;;;;;5115102;28;20229;-57
2022/10/30 12:45:55;;;;;;;11.07;7.97;;;21.60;99.90;;;;;;5099390;28;20226;-58
2022/10/30 12:48:30;;;;;;;16.00;8.50;;;21.60;99.90;;;;;;5098511;28;20229;-57
2022/10/30 12:51:12;;;;;;;12.17;7.53;;;21.60;99.90;;;;;;5115060;28;20229;-58
2022/10/30 12:53:49;;;;;;;16.07;8.57;;;21.60;99.90;;;;;;5115032;28;21504;-57
2022/10/30 12:56:27;;;;;;;11.87;7.83;;;21.50;99.90;;;;;;5114299;28;20589;-58
2022/10/30 12:59:02;;;;;;;13.93;8.27;;;21.50;99.90;;;;;;5113254;28;20233;-58
2022/10/30 13:01:37;;;;;;;14.67;8.13;;;21.50;99.90;;;;;;5114036;28;20241;-58
2022/10/30 13:04:10;;;;;;;10.47;7.70;;;21.50;99.90;;;;;;5115068;28;20229;-58
2022/10/30 13:06:45;;;;;;;13.83;7.87;;;21.50;99.90;;;;;;5107884;28;20669;-57